sensor_id;sensor_type;location;lat;lon;timestamp;temperature;humidity
65854;DHT22;52627;48.838;2.402;2023-04-25T00:00:20;10.71;75.51
65854;DHT22;52627;48.838;2.402;2023-04-25T00:02:46;10.70;75.42
65854;DHT22;52627;48.838;2.402;2023-04-25T00:05:14;10.69;75.36
65854;DHT22;52627;48.838;2.402;2023-04-25T00:07:43;10.67;75.31
65854;DHT22;52627;48.838;2.402;2023-04-25T00:10:10;10.67;75.43
65854;DHT22;52627;48.838;2.402;2023-04-25T00:12:40;10.66;75.36
65854;DHT22;52627;48.838;2.402;2023-04-25T00:15:08;10.65;75.30
65854;DHT22;52627;48.838;2.402;2023-04-25T00:17:35;10.63;75.28
65854;DHT22;52627;48.838;2.402;2023-04-25T00:20:05;10.61;75.29
65854;DHT22;52627;48.838;2.402;2023-04-25T00:22:35;10.59;75.22
65854;DHT22;52627;48.838;2.402;2023-04-25T00:25:04;10.56;75.22
65854;DHT22;52627;48.838;2.402;2023-04-25T00:27:32;10.54;75.22
65854;DHT22;52627;48.838;2.402;2023-04-25T00:29:59;10.51;75.23
65854;DHT22;52627;48.838;2.402;2023-04-25T00:32:26;10.50;75.26
65854;DHT22;52627;48.838;2.402;2023-04-25T00:34:54;10.48;75.29
65854;DHT22;52627;48.838;2.402;2023-04-25T00:37:22;10.45;75.30
65854;DHT22;52627;48.838;2.402;2023-04-25T00:39:48;10.43;75.33
65854;DHT22;52627;48.838;2.402;2023-04-25T00:42:15;10.40;75.29
65854;DHT22;52627;48.838;2.402;2023-04-25T00:44:42;10.38;75.22
65854;DHT22;52627;48.838;2.402;2023-04-25T00:47:10;10.34;75.20
65854;DHT22;52627;48.838;2.402;2023-04-25T00:49:37;10.34;75.32
65854;DHT22;52627;48.838;2.402;2023-04-25T00:52:04;10.31;75.33
65854;DHT22;52627;48.838;2.402;2023-04-25T00:54:31;10.30;75.32
65854;DHT22;52627;48.838;2.402;2023-04-25T00:56:58;10.28;75.32
65854;DHT22;52627;48.838;2.402;2023-04-25T00:59:25;10.26;75.42
65854;DHT22;52627;48.838;2.402;2023-04-25T01:01:52;10.26;75.40
65854;DHT22;52627;48.838;2.402;2023-04-25T01:04:19;10.26;75.39
65854;DHT22;52627;48.838;2.402;2023-04-25T01:06:46;10.25;75.37
65854;DHT22;52627;48.838;2.402;2023-04-25T01:09:14;10.25;75.37
65854;DHT22;52627;48.838;2.402;2023-04-25T01:11:41;10.25;75.39
65854;DHT22;52627;48.838;2.402;2023-04-25T01:14:07;10.23;75.28
65854;DHT22;52627;48.838;2.402;2023-04-25T01:16:34;10.22;75.25
65854;DHT22;52627;48.838;2.402;2023-04-25T01:19:01;10.21;75.29
65854;DHT22;52627;48.838;2.402;2023-04-25T01:21:33;10.22;75.35
65854;DHT22;52627;48.838;2.402;2023-04-25T01:24:00;10.22;75.30
65854;DHT22;52627;48.838;2.402;2023-04-25T01:26:28;10.21;75.30
65854;DHT22;52627;48.838;2.402;2023-04-25T01:28:55;10.20;75.30
65854;DHT22;52627;48.838;2.402;2023-04-25T01:31:24;10.20;75.38
65854;DHT22;52627;48.838;2.402;2023-04-25T01:33:51;10.21;75.40
65854;DHT22;52627;48.838;2.402;2023-04-25T01:36:19;10.21;75.43
65854;DHT22;52627;48.838;2.402;2023-04-25T01:38:46;10.22;75.50
65854;DHT22;52627;48.838;2.402;2023-04-25T01:41:14;10.21;75.50
65854;DHT22;52627;48.838;2.402;2023-04-25T01:43:41;10.19;75.49
65854;DHT22;52627;48.838;2.402;2023-04-25T01:46:07;10.18;75.52
65854;DHT22;52627;48.838;2.402;2023-04-25T01:48:34;10.17;75.51
65854;DHT22;52627;48.838;2.402;2023-04-25T01:51:01;10.15;75.53
65854;DHT22;52627;48.838;2.402;2023-04-25T01:53:28;10.13;75.60
65854;DHT22;52627;48.838;2.402;2023-04-25T01:55:56;10.12;75.64
65854;DHT22;52627;48.838;2.402;2023-04-25T01:58:22;10.11;75.69
65854;DHT22;52627;48.838;2.402;2023-04-25T02:00:49;10.11;75.77
65854;DHT22;52627;48.838;2.402;2023-04-25T02:03:16;10.11;75.77
65854;DHT22;52627;48.838;2.402;2023-04-25T02:05:43;10.10;75.80
65854;DHT22;52627;48.838;2.402;2023-04-25T02:08:10;10.10;75.80
65854;DHT22;52627;48.838;2.402;2023-04-25T02:10:36;10.10;75.81
65854;DHT22;52627;48.838;2.402;2023-04-25T02:13:04;10.11;75.80
65854;DHT22;52627;48.838;2.402;2023-04-25T02:15:31;10.11;75.82
65854;DHT22;52627;48.838;2.402;2023-04-25T02:17:59;10.11;75.90
65854;DHT22;52627;48.838;2.402;2023-04-25T02:20:29;10.11;75.84
65854;DHT22;52627;48.838;2.402;2023-04-25T02:22:57;10.12;75.86
65854;DHT22;52627;48.838;2.402;2023-04-25T02:25:24;10.12;75.86
65854;DHT22;52627;48.838;2.402;2023-04-25T02:27:51;10.12;75.90
65854;DHT22;52627;48.838;2.402;2023-04-25T02:30:17;10.14;75.90
65854;DHT22;52627;48.838;2.402;2023-04-25T02:32:44;10.13;75.90
65854;DHT22;52627;48.838;2.402;2023-04-25T02:35:11;10.13;75.90
65854;DHT22;52627;48.838;2.402;2023-04-25T02:37:39;10.12;75.90
65854;DHT22;52627;48.838;2.402;2023-04-25T02:40:06;10.10;75.90
65854;DHT22;52627;48.838;2.402;2023-04-25T02:42:34;10.10;75.96
65854;DHT22;52627;48.838;2.402;2023-04-25T02:45:02;10.11;76.00
65854;DHT22;52627;48.838;2.402;2023-04-25T02:47:29;10.12;76.02
65854;DHT22;52627;48.838;2.402;2023-04-25T02:49:57;10.11;76.00
65854;DHT22;52627;48.838;2.402;2023-04-25T02:52:24;10.10;76.00
65854;DHT22;52627;48.838;2.402;2023-04-25T02:54:51;10.10;76.00
65854;DHT22;52627;48.838;2.402;2023-04-25T02:57:17;10.07;75.97
65854;DHT22;52627;48.838;2.402;2023-04-25T02:59:44;10.05;75.95
65854;DHT22;52627;48.838;2.402;2023-04-25T03:02:11;10.02;76.00
65854;DHT22;52627;48.838;2.402;2023-04-25T03:04:38;9.99;76.00
65854;DHT22;52627;48.838;2.402;2023-04-25T03:07:05;9.98;76.03
65854;DHT22;52627;48.838;2.402;2023-04-25T03:09:32;9.98;76.10
65854;DHT22;52627;48.838;2.402;2023-04-25T03:11:59;9.96;76.04
65854;DHT22;52627;48.838;2.402;2023-04-25T03:14:26;9.92;76.00
65854;DHT22;52627;48.838;2.402;2023-04-25T03:16:53;9.90;76.06
65854;DHT22;52627;48.838;2.402;2023-04-25T03:19:20;9.89;76.03
65854;DHT22;52627;48.838;2.402;2023-04-25T03:21:47;9.87;76.09
65854;DHT22;52627;48.838;2.402;2023-04-25T03:24:14;9.86;76.10
65854;DHT22;52627;48.838;2.402;2023-04-25T03:26:41;9.86;76.15
65854;DHT22;52627;48.838;2.402;2023-04-25T03:29:08;9.86;76.19
65854;DHT22;52627;48.838;2.402;2023-04-25T03:31:35;9.85;76.19
65854;DHT22;52627;48.838;2.402;2023-04-25T03:34:02;9.83;76.21
65854;DHT22;52627;48.838;2.402;2023-04-25T03:36:28;9.83;76.25
65854;DHT22;52627;48.838;2.402;2023-04-25T03:38:55;9.84;76.25
65854;DHT22;52627;48.838;2.402;2023-04-25T03:41:22;9.83;76.24
65854;DHT22;52627;48.838;2.402;2023-04-25T03:43:49;9.81;76.29
65854;DHT22;52627;48.838;2.402;2023-04-25T03:46:16;9.82;76.32
65854;DHT22;52627;48.838;2.402;2023-04-25T03:48:43;9.81;76.31
65854;DHT22;52627;48.838;2.402;2023-04-25T03:51:09;9.82;76.33
65854;DHT22;52627;48.838;2.402;2023-04-25T03:53:37;9.81;76.39
65854;DHT22;52627;48.838;2.402;2023-04-25T03:56:04;9.80;76.35
65854;DHT22;52627;48.838;2.402;2023-04-25T03:58:31;9.76;76.34
65854;DHT22;52627;48.838;2.402;2023-04-25T04:00:58;9.73;76.38
65854;DHT22;52627;48.838;2.402;2023-04-25T04:03:24;9.73;76.40
65854;DHT22;52627;48.838;2.402;2023-04-25T04:05:52;9.73;76.40
65854;DHT22;52627;48.838;2.402;2023-04-25T04:08:19;9.72;76.40
65854;DHT22;52627;48.838;2.402;2023-04-25T04:10:46;9.71;76.43
65854;DHT22;52627;48.838;2.402;2023-04-25T04:13:13;9.71;76.47
65854;DHT22;52627;48.838;2.402;2023-04-25T04:15:40;9.70;76.50
65854;DHT22;52627;48.838;2.402;2023-04-25T04:18:06;9.70;76.52
65854;DHT22;52627;48.838;2.402;2023-04-25T04:20:33;9.72;76.51
65854;DHT22;52627;48.838;2.402;2023-04-25T04:23:00;9.72;76.51
65854;DHT22;52627;48.838;2.402;2023-04-25T04:25:27;9.72;76.60
65854;DHT22;52627;48.838;2.402;2023-04-25T04:27:54;9.73;76.60
65854;DHT22;52627;48.838;2.402;2023-04-25T04:30:22;9.74;76.59
65854;DHT22;52627;48.838;2.402;2023-04-25T04:32:51;9.77;76.60
65854;DHT22;52627;48.838;2.402;2023-04-25T04:35:18;9.78;76.61
65854;DHT22;52627;48.838;2.402;2023-04-25T04:37:45;9.79;76.60
65854;DHT22;52627;48.838;2.402;2023-04-25T04:40:12;9.78;76.59
65854;DHT22;52627;48.838;2.402;2023-04-25T04:42:42;9.77;76.54
65854;DHT22;52627;48.838;2.402;2023-04-25T04:45:11;9.78;76.60
65854;DHT22;52627;48.838;2.402;2023-04-25T04:47:38;9.77;76.60
65854;DHT22;52627;48.838;2.402;2023-04-25T04:50:07;9.78;76.60
65854;DHT22;52627;48.838;2.402;2023-04-25T04:52:36;9.78;76.62
65854;DHT22;52627;48.838;2.402;2023-04-25T04:55:04;9.80;76.61
65854;DHT22;52627;48.838;2.402;2023-04-25T04:57:32;9.79;76.62
65854;DHT22;52627;48.838;2.402;2023-04-25T04:59:59;9.80;76.60
65854;DHT22;52627;48.838;2.402;2023-04-25T05:02:26;9.80;76.64
65854;DHT22;52627;48.838;2.402;2023-04-25T05:04:55;9.82;76.70
65854;DHT22;52627;48.838;2.402;2023-04-25T05:07:22;9.83;76.66
65854;DHT22;52627;48.838;2.402;2023-04-25T05:09:49;9.82;76.63
65854;DHT22;52627;48.838;2.402;2023-04-25T05:12:16;9.85;76.70
65854;DHT22;52627;48.838;2.402;2023-04-25T05:14:43;9.87;76.70
65854;DHT22;52627;48.838;2.402;2023-04-25T05:17:09;9.88;76.70
65854;DHT22;52627;48.838;2.402;2023-04-25T05:19:36;9.90;76.70
65854;DHT22;52627;48.838;2.402;2023-04-25T05:22:03;9.92;76.70
65854;DHT22;52627;48.838;2.402;2023-04-25T05:24:30;9.93;76.70
65854;DHT22;52627;48.838;2.402;2023-04-25T05:26:57;9.95;76.77
65854;DHT22;52627;48.838;2.402;2023-04-25T05:29:24;9.97;76.72
65854;DHT22;52627;48.838;2.402;2023-04-25T05:31:50;9.99;76.71
65854;DHT22;52627;48.838;2.402;2023-04-25T05:34:17;10.01;76.70
65854;DHT22;52627;48.838;2.402;2023-04-25T05:36:44;10.03;76.71
65854;DHT22;52627;48.838;2.402;2023-04-25T05:39:17;10.04;76.70
65854;DHT22;52627;48.838;2.402;2023-04-25T05:41:44;10.06;76.70
65854;DHT22;52627;48.838;2.402;2023-04-25T05:44:11;10.05;76.70
65854;DHT22;52627;48.838;2.402;2023-04-25T05:46:38;10.07;76.70
65854;DHT22;52627;48.838;2.402;2023-04-25T05:49:05;10.07;76.70
65854;DHT22;52627;48.838;2.402;2023-04-25T05:51:32;10.08;76.69
65854;DHT22;52627;48.838;2.402;2023-04-25T05:53:58;10.08;76.62
65854;DHT22;52627;48.838;2.402;2023-04-25T05:56:25;10.08;76.64
65854;DHT22;52627;48.838;2.402;2023-04-25T05:58:52;10.08;76.63
65854;DHT22;52627;48.838;2.402;2023-04-25T06:01:19;10.07;76.62
65854;DHT22;52627;48.838;2.402;2023-04-25T06:03:47;10.09;76.68
65854;DHT22;52627;48.838;2.402;2023-04-25T06:06:14;10.08;76.69
65854;DHT22;52627;48.838;2.402;2023-04-25T06:08:41;10.08;76.66
65854;DHT22;52627;48.838;2.402;2023-04-25T06:11:08;10.09;76.68
65854;DHT22;52627;48.838;2.402;2023-04-25T06:13:34;10.10;76.67
65854;DHT22;52627;48.838;2.402;2023-04-25T06:16:01;10.13;76.69
65854;DHT22;52627;48.838;2.402;2023-04-25T06:18:28;10.15;76.64
65854;DHT22;52627;48.838;2.402;2023-04-25T06:20:55;10.17;76.60
65854;DHT22;52627;48.838;2.402;2023-04-25T06:23:22;10.20;76.60
65854;DHT22;52627;48.838;2.402;2023-04-25T06:25:49;10.21;76.60
65854;DHT22;52627;48.838;2.402;2023-04-25T06:28:16;10.23;76.55
65854;DHT22;52627;48.838;2.402;2023-04-25T06:30:43;10.25;76.50
65854;DHT22;52627;48.838;2.402;2023-04-25T06:33:09;10.27;76.44
65854;DHT22;52627;48.838;2.402;2023-04-25T06:35:36;10.29;76.40
65854;DHT22;52627;48.838;2.402;2023-04-25T06:38:03;10.31;76.30
65854;DHT22;52627;48.838;2.402;2023-04-25T06:40:30;10.31;76.23
65854;DHT22;52627;48.838;2.402;2023-04-25T06:42:56;10.34;76.20
65854;DHT22;52627;48.838;2.402;2023-04-25T06:45:23;10.38;76.11
65854;DHT22;52627;48.838;2.402;2023-04-25T06:47:50;10.44;76.10
65854;DHT22;52627;48.838;2.402;2023-04-25T06:50:17;10.50;76.05
65854;DHT22;52627;48.838;2.402;2023-04-25T06:52:44;10.55;75.95
65854;DHT22;52627;48.838;2.402;2023-04-25T06:55:10;10.59;75.90
65854;DHT22;52627;48.838;2.402;2023-04-25T06:57:37;10.65;75.80
65854;DHT22;52627;48.838;2.402;2023-04-25T07:00:04;10.69;75.68
65854;DHT22;52627;48.838;2.402;2023-04-25T07:02:35;10.73;75.60
65854;DHT22;52627;48.838;2.402;2023-04-25T07:05:02;10.77;75.54
65854;DHT22;52627;48.838;2.402;2023-04-25T07:07:30;10.79;75.44
65854;DHT22;52627;48.838;2.402;2023-04-25T07:09:57;10.78;75.34
65854;DHT22;52627;48.838;2.402;2023-04-25T07:12:24;10.77;75.24
65854;DHT22;52627;48.838;2.402;2023-04-25T07:14:51;10.77;75.20
65854;DHT22;52627;48.838;2.402;2023-04-25T07:17:17;10.79;75.13
65854;DHT22;52627;48.838;2.402;2023-04-25T07:19:44;10.78;75.07
65854;DHT22;52627;48.838;2.402;2023-04-25T07:22:11;10.77;75.00
65854;DHT22;52627;48.838;2.402;2023-04-25T07:24:38;10.78;75.00
65854;DHT22;52627;48.838;2.402;2023-04-25T07:27:05;10.81;74.92
65854;DHT22;52627;48.838;2.402;2023-04-25T07:29:32;10.86;74.81
65854;DHT22;52627;48.838;2.402;2023-04-25T07:32:02;10.93;74.72
65854;DHT22;52627;48.838;2.402;2023-04-25T07:34:28;11.00;74.62
65854;DHT22;52627;48.838;2.402;2023-04-25T07:36:56;11.02;74.47
65854;DHT22;52627;48.838;2.402;2023-04-25T07:39:23;11.02;74.48
65854;DHT22;52627;48.838;2.402;2023-04-25T07:41:50;11.02;74.40
65854;DHT22;52627;48.838;2.402;2023-04-25T07:44:19;10.99;74.35
65854;DHT22;52627;48.838;2.402;2023-04-25T07:46:46;10.93;74.26
65854;DHT22;52627;48.838;2.402;2023-04-25T07:49:13;10.86;74.22
65854;DHT22;52627;48.838;2.402;2023-04-25T07:51:40;10.82;74.18
65854;DHT22;52627;48.838;2.402;2023-04-25T07:54:10;10.76;74.09
65854;DHT22;52627;48.838;2.402;2023-04-25T07:56:40;10.70;74.06
65854;DHT22;52627;48.838;2.402;2023-04-25T07:59:18;10.67;74.00
65854;DHT22;52627;48.838;2.402;2023-04-25T08:01:45;10.67;73.93
65854;DHT22;52627;48.838;2.402;2023-04-25T08:04:12;10.69;73.83
65854;DHT22;52627;48.838;2.402;2023-04-25T08:06:39;10.72;73.72
65854;DHT22;52627;48.838;2.402;2023-04-25T08:09:07;10.76;73.62
65854;DHT22;52627;48.838;2.402;2023-04-25T08:11:35;10.80;73.53
65854;DHT22;52627;48.838;2.402;2023-04-25T08:14:03;10.87;73.42
65854;DHT22;52627;48.838;2.402;2023-04-25T08:16:29;10.99;73.34
65854;DHT22;52627;48.838;2.402;2023-04-25T08:18:56;11.16;73.27
65854;DHT22;52627;48.838;2.402;2023-04-25T08:21:23;11.44;73.16
65854;DHT22;52627;48.838;2.402;2023-04-25T08:23:50;11.98;72.99
65854;DHT22;52627;48.838;2.402;2023-04-25T08:26:17;12.35;72.68
65854;DHT22;52627;48.838;2.402;2023-04-25T08:28:43;12.69;72.34
65854;DHT22;52627;48.838;2.402;2023-04-25T08:31:10;12.92;72.06
65854;DHT22;52627;48.838;2.402;2023-04-25T08:33:37;13.41;71.75
65854;DHT22;52627;48.838;2.402;2023-04-25T08:36:04;14.15;71.22
65854;DHT22;52627;48.838;2.402;2023-04-25T08:38:32;14.35;70.30
65854;DHT22;52627;48.838;2.402;2023-04-25T08:40:59;14.31;69.90
65854;DHT22;52627;48.838;2.402;2023-04-25T08:43:29;14.23;69.15
65854;DHT22;52627;48.838;2.402;2023-04-25T08:45:59;14.20;69.28
65854;DHT22;52627;48.838;2.402;2023-04-25T08:48:27;14.44;69.02
65854;DHT22;52627;48.838;2.402;2023-04-25T08:50:55;14.74;68.57
65854;DHT22;52627;48.838;2.402;2023-04-25T08:53:26;14.97;68.08
65854;DHT22;52627;48.838;2.402;2023-04-25T08:55:55;15.12;67.71
65854;DHT22;52627;48.838;2.402;2023-04-25T08:58:24;15.09;67.32
65854;DHT22;52627;48.838;2.402;2023-04-25T09:00:52;15.01;66.99
65854;DHT22;52627;48.838;2.402;2023-04-25T09:03:19;14.88;66.68
65854;DHT22;52627;48.838;2.402;2023-04-25T09:05:46;14.73;66.42
65854;DHT22;52627;48.838;2.402;2023-04-25T09:08:13;14.57;66.06
65854;DHT22;52627;48.838;2.402;2023-04-25T09:10:39;14.36;65.73
65854;DHT22;52627;48.838;2.402;2023-04-25T09:13:13;14.21;65.55
65854;DHT22;52627;48.838;2.402;2023-04-25T09:15:51;14.15;65.28
65854;DHT22;52627;48.838;2.402;2023-04-25T09:18:24;14.15;64.91
65854;DHT22;52627;48.838;2.402;2023-04-25T09:23:44;14.20;64.46
65854;DHT22;52627;48.838;2.402;2023-04-25T09:26:14;14.16;64.24
65854;DHT22;52627;48.838;2.402;2023-04-25T09:28:43;14.13;63.98
65854;DHT22;52627;48.838;2.402;2023-04-25T09:31:12;14.08;63.72
65854;DHT22;52627;48.838;2.402;2023-04-25T09:33:48;13.98;63.51
65854;DHT22;52627;48.838;2.402;2023-04-25T09:36:17;13.85;63.43
65854;DHT22;52627;48.838;2.402;2023-04-25T09:38:44;13.74;63.17
65854;DHT22;52627;48.838;2.402;2023-04-25T09:41:13;13.69;63.04
65854;DHT22;52627;48.838;2.402;2023-04-25T09:43:39;13.70;62.84
65854;DHT22;52627;48.838;2.402;2023-04-25T09:46:12;13.70;62.68
65854;DHT22;52627;48.838;2.402;2023-04-25T09:48:39;13.66;62.59
65854;DHT22;52627;48.838;2.402;2023-04-25T09:51:11;13.59;62.43
65854;DHT22;52627;48.838;2.402;2023-04-25T09:53:41;13.50;62.41
65854;DHT22;52627;48.838;2.402;2023-04-25T09:56:10;13.46;62.29
65854;DHT22;52627;48.838;2.402;2023-04-25T09:58:39;13.39;62.15
65854;DHT22;52627;48.838;2.402;2023-04-25T10:01:08;13.36;62.17
65854;DHT22;52627;48.838;2.402;2023-04-25T10:03:37;13.34;62.11
65854;DHT22;52627;48.838;2.402;2023-04-25T10:06:12;13.34;62.10
65854;DHT22;52627;48.838;2.402;2023-04-25T10:08:45;13.38;61.99
65854;DHT22;52627;48.838;2.402;2023-04-25T10:11:17;13.41;61.94
65854;DHT22;52627;48.838;2.402;2023-04-25T10:13:44;13.49;61.82
65854;DHT22;52627;48.838;2.402;2023-04-25T10:16:14;13.58;61.61
65854;DHT22;52627;48.838;2.402;2023-04-25T10:18:42;13.62;61.38
65854;DHT22;52627;48.838;2.402;2023-04-25T10:21:09;13.63;61.20
65854;DHT22;52627;48.838;2.402;2023-04-25T10:23:37;13.70;61.24
65854;DHT22;52627;48.838;2.402;2023-04-25T10:26:04;13.86;61.13
65854;DHT22;52627;48.838;2.402;2023-04-25T10:28:53;13.96;60.88
65854;DHT22;52627;48.838;2.402;2023-04-25T10:31:27;13.93;60.68
65854;DHT22;52627;48.838;2.402;2023-04-25T10:33:57;13.94;60.67
65854;DHT22;52627;48.838;2.402;2023-04-25T10:36:27;13.93;60.46
65854;DHT22;52627;48.838;2.402;2023-04-25T10:38:58;13.82;60.23
65854;DHT22;52627;48.838;2.402;2023-04-25T10:41:45;13.66;60.13
65854;DHT22;52627;48.838;2.402;2023-04-25T10:44:18;13.54;60.27
65854;DHT22;52627;48.838;2.402;2023-04-25T10:46:45;13.53;60.28
65854;DHT22;52627;48.838;2.402;2023-04-25T10:49:28;13.53;60.15
65854;DHT22;52627;48.838;2.402;2023-04-25T10:52:15;13.58;60.09
65854;DHT22;52627;48.838;2.402;2023-04-25T10:54:54;13.68;59.98
65854;DHT22;52627;48.838;2.402;2023-04-25T10:57:37;13.80;59.90
65854;DHT22;52627;48.838;2.402;2023-04-25T11:00:13;13.94;59.84
65854;DHT22;52627;48.838;2.402;2023-04-25T11:03:09;14.01;59.72
65854;DHT22;52627;48.838;2.402;2023-04-25T11:05:36;14.00;59.70
65854;DHT22;52627;48.838;2.402;2023-04-25T11:08:23;14.02;59.51
65854;DHT22;52627;48.838;2.402;2023-04-25T11:11:09;14.06;59.34
65854;DHT22;52627;48.838;2.402;2023-04-25T11:13:36;14.10;59.12
65854;DHT22;52627;48.838;2.402;2023-04-25T11:16:02;14.15;59.07
65854;DHT22;52627;48.838;2.402;2023-04-25T11:18:42;14.23;58.90
65854;DHT22;52627;48.838;2.402;2023-04-25T11:21:11;14.29;58.76
65854;DHT22;52627;48.838;2.402;2023-04-25T11:23:38;14.39;58.75
65854;DHT22;52627;48.838;2.402;2023-04-25T11:26:05;14.43;58.46
65854;DHT22;52627;48.838;2.402;2023-04-25T11:28:32;14.47;58.41
65854;DHT22;52627;48.838;2.402;2023-04-25T11:30:58;14.50;58.29
65854;DHT22;52627;48.838;2.402;2023-04-25T11:33:26;14.54;58.17
65854;DHT22;52627;48.838;2.402;2023-04-25T11:35:56;14.57;57.99
65854;DHT22;52627;48.838;2.402;2023-04-25T11:38:23;14.60;57.81
65854;DHT22;52627;48.838;2.402;2023-04-25T11:40:53;14.57;57.70
65854;DHT22;52627;48.838;2.402;2023-04-25T11:43:21;14.59;57.62
65854;DHT22;52627;48.838;2.402;2023-04-25T11:45:49;14.64;57.58
65854;DHT22;52627;48.838;2.402;2023-04-25T11:48:19;14.69;57.45
65854;DHT22;52627;48.838;2.402;2023-04-25T11:50:53;14.72;57.23
65854;DHT22;52627;48.838;2.402;2023-04-25T11:53:21;14.71;57.02
65854;DHT22;52627;48.838;2.402;2023-04-25T11:55:48;14.70;56.86
65854;DHT22;52627;48.838;2.402;2023-04-25T11:58:14;14.67;56.70
65854;DHT22;52627;48.838;2.402;2023-04-25T12:00:41;14.65;56.58
65854;DHT22;52627;48.838;2.402;2023-04-25T12:03:19;14.64;56.43
65854;DHT22;52627;48.838;2.402;2023-04-25T12:05:48;14.65;56.31
65854;DHT22;52627;48.838;2.402;2023-04-25T12:08:16;14.68;56.18
65854;DHT22;52627;48.838;2.402;2023-04-25T12:10:44;14.71;56.08
65854;DHT22;52627;48.838;2.402;2023-04-25T12:13:20;14.77;55.92
65854;DHT22;52627;48.838;2.402;2023-04-25T12:15:52;14.81;55.74
65854;DHT22;52627;48.838;2.402;2023-04-25T12:18:22;14.88;55.65
65854;DHT22;52627;48.838;2.402;2023-04-25T12:20:53;14.99;55.56
65854;DHT22;52627;48.838;2.402;2023-04-25T12:23:29;15.08;55.44
65854;DHT22;52627;48.838;2.402;2023-04-25T12:25:56;15.17;55.34
65854;DHT22;52627;48.838;2.402;2023-04-25T12:28:24;15.23;55.28
65854;DHT22;52627;48.838;2.402;2023-04-25T12:30:54;15.31;55.17
65854;DHT22;52627;48.838;2.402;2023-04-25T12:33:22;15.45;55.18
65854;DHT22;52627;48.838;2.402;2023-04-25T12:35:51;15.54;54.99
65854;DHT22;52627;48.838;2.402;2023-04-25T12:38:27;15.57;54.86
65854;DHT22;52627;48.838;2.402;2023-04-25T12:40:57;15.59;54.63
65854;DHT22;52627;48.838;2.402;2023-04-25T12:43:24;15.57;54.37
65854;DHT22;52627;48.838;2.402;2023-04-25T12:45:52;15.54;54.22
65854;DHT22;52627;48.838;2.402;2023-04-25T12:48:21;15.55;54.13
65854;DHT22;52627;48.838;2.402;2023-04-25T12:50:49;15.58;54.02
65854;DHT22;52627;48.838;2.402;2023-04-25T12:53:18;15.55;53.72
65854;DHT22;52627;48.838;2.402;2023-04-25T12:55:47;15.52;53.76
65854;DHT22;52627;48.838;2.402;2023-04-25T12:58:14;15.52;53.57
65854;DHT22;52627;48.838;2.402;2023-04-25T13:00:43;15.49;53.48
65854;DHT22;52627;48.838;2.402;2023-04-25T13:03:11;15.47;53.32
65854;DHT22;52627;48.838;2.402;2023-04-25T13:05:39;15.43;53.21
65854;DHT22;52627;48.838;2.402;2023-04-25T13:08:07;15.39;52.97
65854;DHT22;52627;48.838;2.402;2023-04-25T13:10:34;15.31;52.91
65854;DHT22;52627;48.838;2.402;2023-04-25T13:13:02;15.32;52.86
65854;DHT22;52627;48.838;2.402;2023-04-25T13:15:29;15.31;52.79
65854;DHT22;52627;48.838;2.402;2023-04-25T13:17:57;15.36;52.80
65854;DHT22;52627;48.838;2.402;2023-04-25T13:20:23;15.46;52.71
65854;DHT22;52627;48.838;2.402;2023-04-25T13:22:51;15.55;52.67
65854;DHT22;52627;48.838;2.402;2023-04-25T13:25:17;15.61;52.46
65854;DHT22;52627;48.838;2.402;2023-04-25T13:27:45;15.66;52.29
65854;DHT22;52627;48.838;2.402;2023-04-25T13:30:12;15.66;52.08
65854;DHT22;52627;48.838;2.402;2023-04-25T13:32:40;15.71;51.99
65854;DHT22;52627;48.838;2.402;2023-04-25T13:35:11;15.75;51.73
65854;DHT22;52627;48.838;2.402;2023-04-25T13:37:40;15.79;51.69
65854;DHT22;52627;48.838;2.402;2023-04-25T13:40:08;15.88;51.71
65854;DHT22;52627;48.838;2.402;2023-04-25T13:42:37;15.98;51.54
65854;DHT22;52627;48.838;2.402;2023-04-25T13:45:06;16.05;51.30
65854;DHT22;52627;48.838;2.402;2023-04-25T13:47:34;16.08;51.04
65854;DHT22;52627;48.838;2.402;2023-04-25T13:50:01;16.12;50.93
65854;DHT22;52627;48.838;2.402;2023-04-25T13:52:29;16.19;50.78
65854;DHT22;52627;48.838;2.402;2023-04-25T13:54:56;16.22;50.40
65854;DHT22;52627;48.838;2.402;2023-04-25T13:57:24;16.19;50.14
65854;DHT22;52627;48.838;2.402;2023-04-25T13:59:51;16.14;49.88
65854;DHT22;52627;48.838;2.402;2023-04-25T14:02:19;16.09;49.79
65854;DHT22;52627;48.838;2.402;2023-04-25T14:04:46;16.07;49.72
65854;DHT22;52627;48.838;2.402;2023-04-25T14:07:13;16.07;49.60
65854;DHT22;52627;48.838;2.402;2023-04-25T14:09:44;16.05;49.51
65854;DHT22;52627;48.838;2.402;2023-04-25T14:12:11;15.98;49.45
65854;DHT22;52627;48.838;2.402;2023-04-25T14:14:38;15.94;49.39
65854;DHT22;52627;48.838;2.402;2023-04-25T14:17:05;15.92;49.43
65854;DHT22;52627;48.838;2.402;2023-04-25T14:19:33;15.88;49.17
65854;DHT22;52627;48.838;2.402;2023-04-25T14:22:00;15.79;48.98
65854;DHT22;52627;48.838;2.402;2023-04-25T14:24:27;15.69;48.66
65854;DHT22;52627;48.838;2.402;2023-04-25T14:26:53;15.58;48.68
65854;DHT22;52627;48.838;2.402;2023-04-25T14:29:20;15.53;48.64
65854;DHT22;52627;48.838;2.402;2023-04-25T14:31:47;15.50;48.64
65854;DHT22;52627;48.838;2.402;2023-04-25T14:34:15;15.43;48.54
65854;DHT22;52627;48.838;2.402;2023-04-25T14:36:41;15.34;48.61
65854;DHT22;52627;48.838;2.402;2023-04-25T14:39:08;15.28;48.62
65854;DHT22;52627;48.838;2.402;2023-04-25T14:41:36;15.21;48.61
65854;DHT22;52627;48.838;2.402;2023-04-25T14:44:03;15.16;48.64
65854;DHT22;52627;48.838;2.402;2023-04-25T14:46:30;15.08;48.63
65854;DHT22;52627;48.838;2.402;2023-04-25T14:48:57;14.99;48.54
65854;DHT22;52627;48.838;2.402;2023-04-25T14:51:24;14.91;48.56
65854;DHT22;52627;48.838;2.402;2023-04-25T14:53:52;14.81;48.57
65854;DHT22;52627;48.838;2.402;2023-04-25T14:56:19;14.72;48.59
65854;DHT22;52627;48.838;2.402;2023-04-25T14:58:46;14.66;48.68
65854;DHT22;52627;48.838;2.402;2023-04-25T15:01:13;14.61;48.73
65854;DHT22;52627;48.838;2.402;2023-04-25T15:03:40;14.57;48.79
65854;DHT22;52627;48.838;2.402;2023-04-25T15:06:07;14.53;48.81
65854;DHT22;52627;48.838;2.402;2023-04-25T15:08:34;14.49;48.83
65854;DHT22;52627;48.838;2.402;2023-04-25T15:11:02;14.43;48.88
65854;DHT22;52627;48.838;2.402;2023-04-25T15:13:29;14.39;48.89
65854;DHT22;52627;48.838;2.402;2023-04-25T15:15:56;14.33;48.85
65854;DHT22;52627;48.838;2.402;2023-04-25T15:18:23;14.26;48.89
65854;DHT22;52627;48.838;2.402;2023-04-25T15:20:50;14.15;48.95
65854;DHT22;52627;48.838;2.402;2023-04-25T15:23:18;13.99;49.00
65854;DHT22;52627;48.838;2.402;2023-04-25T15:25:46;13.91;49.20
65854;DHT22;52627;48.838;2.402;2023-04-25T15:28:13;13.86;49.19
65854;DHT22;52627;48.838;2.402;2023-04-25T15:30:42;13.85;49.34
65854;DHT22;52627;48.838;2.402;2023-04-25T15:33:10;13.92;49.47
65854;DHT22;52627;48.838;2.402;2023-04-25T15:35:37;14.01;49.58
65854;DHT22;52627;48.838;2.402;2023-04-25T15:38:03;14.11;49.71
65854;DHT22;52627;48.838;2.402;2023-04-25T15:40:32;14.18;49.78